JST84 YPDN-YPAD
Flight info
| Callsign | JST84 |
|---|---|
| Flight time | N/A |
| Altitude | 37000 |
| Route | DN Y25 BEBUX Y83 GREGA J251 WHA H84 AD |
| Aircraft | A320/M-SDE3FGHIRWY/LB1 |
Departure
| Time | 2026-04-23 03:43 |
|---|---|
| Airport | Darwin International Airport / RAAF Darwin (YPDN) |
Arrival
| Time | N/A |
|---|---|
| Airport | Adelaide International Airport (YPAD) |
| Time | Latitude | Longitude | Altitude | Speed | Heading |
|---|---|---|---|---|---|
| 2026-04-23 03:14 | -12.40882 | 130.87741 | 90 ft | 0 kts | 19° |
| 2026-04-23 03:32 | -12.40893 | 130.87737 | 90 ft | 3 kts | 16° |
| 2026-04-23 03:32 | -12.40915 | 130.87732 | 91 ft | 3 kts | 5° |
| 2026-04-23 03:32 | -12.40937 | 130.87732 | 90 ft | 3 kts | 347° |
| 2026-04-23 03:32 | -12.40956 | 130.87740 | 90 ft | 3 kts | 310° |
| 2026-04-23 03:33 | -12.40962 | 130.87750 | 90 ft | 0 kts | 280° |
| 2026-04-23 03:36 | -12.40961 | 130.87745 | 90 ft | 2 kts | 281° |
| 2026-04-23 03:36 | -12.40957 | 130.87723 | 91 ft | 5 kts | 282° |
| 2026-04-23 03:37 | -12.40953 | 130.87683 | 91 ft | 7 kts | 266° |
| 2026-04-23 03:37 | -12.40970 | 130.87631 | 91 ft | 9 kts | 238° |
| 2026-04-23 03:37 | -12.41021 | 130.87593 | 92 ft | 10 kts | 202° |
| 2026-04-23 03:37 | -12.41094 | 130.87567 | 90 ft | 12 kts | 199° |
| 2026-04-23 03:38 | -12.41181 | 130.87536 | 92 ft | 14 kts | 198° |
| 2026-04-23 03:38 | -12.41279 | 130.87503 | 91 ft | 16 kts | 198° |
| 2026-04-23 03:38 | -12.41389 | 130.87464 | 90 ft | 18 kts | 200° |
| 2026-04-23 03:38 | -12.41485 | 130.87384 | 90 ft | 19 kts | 247° |
| 2026-04-23 03:39 | -12.41465 | 130.87248 | 91 ft | 20 kts | 290° |
| 2026-04-23 03:39 | -12.41417 | 130.87106 | 90 ft | 22 kts | 289° |
| 2026-04-23 03:39 | -12.41366 | 130.86956 | 92 ft | 23 kts | 289° |
| 2026-04-23 03:39 | -12.41312 | 130.86795 | 92 ft | 25 kts | 289° |
| 2026-04-23 03:40 | -12.41255 | 130.86625 | 93 ft | 26 kts | 289° |
| 2026-04-23 03:40 | -12.41183 | 130.86494 | 92 ft | 20 kts | 323° |
| 2026-04-23 03:40 | -12.41081 | 130.86483 | 90 ft | 14 kts | 18° |
| 2026-04-23 03:40 | -12.41065 | 130.86489 | 90 ft | 1 kts | 19° |
| 2026-04-23 03:41 | -12.41051 | 130.86494 | 90 ft | 3 kts | 19° |
| 2026-04-23 03:41 | -12.41027 | 130.86503 | 90 ft | 4 kts | 19° |
| 2026-04-23 03:41 | -12.40993 | 130.86515 | 90 ft | 6 kts | 19° |
| 2026-04-23 03:41 | -12.40958 | 130.86546 | 91 ft | 8 kts | 63° |
| 2026-04-23 03:42 | -12.40963 | 130.86607 | 90 ft | 10 kts | 110° |
| 2026-04-23 03:42 | -12.41004 | 130.86723 | 92 ft | 40 kts | 109° |
| 2026-04-23 03:42 | -12.41167 | 130.87207 | 90 ft | 100 kts | 109° |
| 2026-04-23 03:42 | -12.41446 | 130.88032 | 91 ft | 144 kts | 109° |
| 2026-04-23 03:43 | -12.41788 | 130.89084 | 407 ft | 156 kts | 109° |
| 2026-04-23 03:43 | -12.42140 | 130.90126 | 992 ft | 155 kts | 108° |
| 2026-04-23 03:43 | -12.42484 | 130.91148 | 1536 ft | 153 kts | 108° |
| 2026-04-23 03:43 | -12.42837 | 130.92194 | 1930 ft | 162 kts | 108° |
| 2026-04-23 03:44 | -12.43226 | 130.93354 | 2116 ft | 183 kts | 108° |
| 2026-04-23 03:44 | -12.43668 | 130.94673 | 2313 ft | 208 kts | 108° |
| 2026-04-23 03:44 | -12.44161 | 130.96153 | 2628 ft | 231 kts | 108° |
| 2026-04-23 03:44 | -12.44697 | 130.97754 | 3286 ft | 240 kts | 108° |
| 2026-04-23 03:45 | -12.45242 | 130.99382 | 4143 ft | 243 kts | 108° |
| 2026-04-23 03:45 | -12.45794 | 131.01029 | 4974 ft | 247 kts | 108° |
| 2026-04-23 03:45 | -12.46360 | 131.02716 | 5711 ft | 254 kts | 108° |
| 2026-04-23 03:45 | -12.46904 | 131.04458 | 6445 ft | 260 kts | 103° |
| 2026-04-23 03:46 | -12.47212 | 131.06274 | 7101 ft | 266 kts | 99° |
| 2026-04-23 03:46 | -12.47504 | 131.08155 | 7841 ft | 270 kts | 99° |
| 2026-04-23 03:46 | -12.47802 | 131.10062 | 8543 ft | 274 kts | 99° |
| 2026-04-23 03:46 | -12.48108 | 131.12012 | 9209 ft | 280 kts | 99° |
| 2026-04-23 03:47 | -12.48420 | 131.13988 | 9900 ft | 284 kts | 98° |
| 2026-04-23 03:47 | -12.48738 | 131.16006 | 10388 ft | 295 kts | 98° |
| 2026-04-23 03:47 | -12.49076 | 131.18164 | 10526 ft | 318 kts | 98° |
| 2026-04-23 03:47 | -12.49440 | 131.20477 | 10659 ft | 340 kts | 98° |
| 2026-04-23 03:48 | -12.49826 | 131.22935 | 10772 ft | 359 kts | 98° |
| 2026-04-23 03:48 | -12.50226 | 131.25486 | 10892 ft | 377 kts | 98° |
| 2026-04-23 03:48 | -12.50648 | 131.28189 | 11052 ft | 391 kts | 98° |
| 2026-04-23 03:48 | -12.51083 | 131.30967 | 11421 ft | 398 kts | 98° |
| 2026-04-23 03:49 | -12.51520 | 131.33775 | 11906 ft | 401 kts | 98° |
| 2026-04-23 03:49 | -12.51961 | 131.36608 | 12377 ft | 405 kts | 98° |
| 2026-04-23 03:49 | -12.52410 | 131.39470 | 12819 ft | 410 kts | 98° |
| 2026-04-23 03:49 | -12.52863 | 131.42353 | 13288 ft | 413 kts | 97° |
| 2026-04-23 03:50 | -12.53320 | 131.45267 | 13768 ft | 416 kts | 97° |
| 2026-04-23 03:50 | -12.53774 | 131.48164 | 14175 ft | 419 kts | 98° |
| 2026-04-23 03:50 | -12.54233 | 131.51117 | 14611 ft | 421 kts | 98° |
| 2026-04-23 03:50 | -12.54692 | 131.54081 | 15083 ft | 422 kts | 98° |
| 2026-04-23 03:51 | -12.55154 | 131.57056 | 15485 ft | 424 kts | 99° |
| 2026-04-23 03:51 | -12.55621 | 131.60049 | 15889 ft | 426 kts | 99° |
| 2026-04-23 03:51 | -12.56090 | 131.63051 | 16326 ft | 428 kts | 99° |
| 2026-04-23 03:51 | -12.56559 | 131.66062 | 16743 ft | 429 kts | 99° |
| 2026-04-23 03:52 | -12.57027 | 131.69092 | 17105 ft | 432 kts | 99° |
| 2026-04-23 03:52 | -12.57488 | 131.72086 | 17543 ft | 432 kts | 99° |
| 2026-04-23 03:52 | -12.58053 | 131.75108 | 17907 ft | 434 kts | 105° |
| 2026-04-23 03:52 | -12.58894 | 131.78081 | 18237 ft | 436 kts | 107° |
| 2026-04-23 03:53 | -12.59747 | 131.81073 | 18522 ft | 439 kts | 107° |
| 2026-04-23 03:53 | -12.60602 | 131.84078 | 18841 ft | 440 kts | 107° |
| 2026-04-23 03:53 | -12.61459 | 131.87095 | 19127 ft | 443 kts | 107° |
| 2026-04-23 03:53 | -12.62319 | 131.90128 | 19387 ft | 446 kts | 107° |
| 2026-04-23 03:54 | -12.63185 | 131.93183 | 19705 ft | 448 kts | 107° |
| 2026-04-23 03:54 | -12.64042 | 131.96212 | 19999 ft | 449 kts | 107° |
| 2026-04-23 03:54 | -12.64912 | 131.99289 | 20276 ft | 452 kts | 107° |
| 2026-04-23 03:54 | -12.65788 | 132.02388 | 20521 ft | 455 kts | 107° |
| 2026-04-23 03:55 | -12.66671 | 132.05505 | 20807 ft | 457 kts | 107° |
| 2026-04-23 03:55 | -12.67556 | 132.08632 | 21120 ft | 458 kts | 107° |
| 2026-04-23 03:55 | -12.68440 | 132.11774 | 21366 ft | 460 kts | 107° |
| 2026-04-23 03:55 | -12.69365 | 132.14922 | 21582 ft | 463 kts | 111° |
| 2026-04-23 03:56 | -12.70775 | 132.17870 | 21806 ft | 463 kts | 123° |
| 2026-04-23 03:56 | -12.72773 | 132.20452 | 22013 ft | 463 kts | 135° |
| 2026-04-23 03:56 | -12.75230 | 132.22518 | 22216 ft | 465 kts | 147° |
| 2026-04-23 03:56 | -12.78104 | 132.24011 | 22530 ft | 464 kts | 159° |
| 2026-04-23 03:57 | -12.81214 | 132.24868 | 22841 ft | 463 kts | 169° |
| 2026-04-23 03:57 | -12.84376 | 132.25495 | 23185 ft | 462 kts | 168° |
| 2026-04-23 03:57 | -12.87527 | 132.26125 | 23517 ft | 461 kts | 168° |
| 2026-04-23 03:57 | -12.90678 | 132.26762 | 23747 ft | 462 kts | 168° |
| 2026-04-23 03:58 | -12.93829 | 132.27399 | 24051 ft | 460 kts | 168° |
| 2026-04-23 03:58 | -12.96971 | 132.28034 | 24318 ft | 460 kts | 169° |
| 2026-04-23 03:58 | -13.00116 | 132.28669 | 24555 ft | 461 kts | 169° |
| 2026-04-23 03:58 | -13.03218 | 132.29295 | 24878 ft | 459 kts | 169° |
| 2026-04-23 03:59 | -13.06354 | 132.29927 | 25161 ft | 460 kts | 169° |
| 2026-04-23 03:59 | -13.09494 | 132.30559 | 25437 ft | 460 kts | 169° |
| 2026-04-23 03:59 | -13.12630 | 132.31189 | 25768 ft | 458 kts | 169° |
| 2026-04-23 03:59 | -13.15758 | 132.31814 | 26068 ft | 459 kts | 169° |
| 2026-04-23 04:00 | -13.18901 | 132.32441 | 26326 ft | 460 kts | 170° |
| 2026-04-23 04:00 | -13.22035 | 132.33068 | 26661 ft | 459 kts | 169° |
| 2026-04-23 04:00 | -13.25168 | 132.33696 | 26974 ft | 459 kts | 169° |
| 2026-04-23 04:00 | -13.28307 | 132.34325 | 27256 ft | 459 kts | 171° |
| 2026-04-23 04:01 | -13.31399 | 132.34949 | 27611 ft | 458 kts | 170° |
| 2026-04-23 04:01 | -13.34531 | 132.35585 | 27913 ft | 459 kts | 170° |
| 2026-04-23 04:01 | -13.37664 | 132.36221 | 28211 ft | 460 kts | 171° |
| 2026-04-23 04:01 | -13.40801 | 132.36857 | 28566 ft | 459 kts | 170° |
| 2026-04-23 04:02 | -13.43938 | 132.37489 | 28885 ft | 460 kts | 170° |
| 2026-04-23 04:02 | -13.47079 | 132.38118 | 29221 ft | 460 kts | 172° |
| 2026-04-23 04:02 | -13.50219 | 132.38748 | 29568 ft | 460 kts | 169° |
| 2026-04-23 04:02 | -13.53360 | 132.39378 | 29917 ft | 460 kts | 170° |
| 2026-04-23 04:03 | -13.56460 | 132.40000 | 30217 ft | 460 kts | 172° |
| 2026-04-23 04:03 | -13.59596 | 132.40632 | 30558 ft | 458 kts | 170° |
| 2026-04-23 04:03 | -13.62715 | 132.41264 | 30920 ft | 456 kts | 170° |
| 2026-04-23 04:03 | -13.65825 | 132.41897 | 31287 ft | 454 kts | 171° |
| 2026-04-23 04:04 | -13.68917 | 132.42527 | 31698 ft | 452 kts | 169° |
| 2026-04-23 04:04 | -13.72000 | 132.43152 | 32057 ft | 451 kts | 170° |
| 2026-04-23 04:04 | -13.75068 | 132.43770 | 32440 ft | 449 kts | 171° |
| 2026-04-23 04:04 | -13.78122 | 132.44386 | 32854 ft | 446 kts | 171° |
| 2026-04-23 04:05 | -13.81125 | 132.44992 | 33206 ft | 446 kts | 171° |
| 2026-04-23 04:05 | -13.84157 | 132.45601 | 33632 ft | 442 kts | 171° |
| 2026-04-23 04:05 | -13.87163 | 132.46203 | 34079 ft | 439 kts | 172° |
| 2026-04-23 04:05 | -13.90156 | 132.46805 | 34380 ft | 438 kts | 171° |
| 2026-04-23 04:06 | -13.93139 | 132.47411 | 34673 ft | 437 kts | 171° |
| 2026-04-23 04:06 | -13.96116 | 132.48015 | 34997 ft | 435 kts | 170° |
| 2026-04-23 04:06 | -13.99090 | 132.48615 | 35245 ft | 436 kts | 171° |
| 2026-04-23 04:06 | -14.02063 | 132.49214 | 35515 ft | 435 kts | 171° |
| 2026-04-23 04:07 | -14.04989 | 132.49805 | 35818 ft | 434 kts | 170° |
| 2026-04-23 04:07 | -14.07949 | 132.50409 | 36068 ft | 434 kts | 170° |
| 2026-04-23 04:07 | -14.10906 | 132.51016 | 36315 ft | 433 kts | 171° |
| 2026-04-23 04:07 | -14.13860 | 132.51620 | 36605 ft | 432 kts | 171° |
| 2026-04-23 04:08 | -14.16812 | 132.52219 | 36845 ft | 432 kts | 171° |
| 2026-04-23 04:08 | -14.19770 | 132.52816 | 36943 ft | 434 kts | 171° |
| 2026-04-23 04:08 | -14.25776 | 132.54024 | 36964 ft | 445 kts | 171° |
| 2026-04-23 04:09 | -14.31849 | 132.55257 | 36963 ft | 449 kts | 171° |
| 2026-04-23 04:09 | -14.37982 | 132.56508 | 36964 ft | 450 kts | 172° |
| 2026-04-23 04:10 | -14.44131 | 132.57758 | 36967 ft | 451 kts | 171° |
| 2026-04-23 04:10 | -14.50277 | 132.59009 | 36967 ft | 450 kts | 172° |
| 2026-04-23 04:11 | -14.56419 | 132.60264 | 36962 ft | 450 kts | 171° |
| 2026-04-23 04:11 | -14.62527 | 132.61499 | 36960 ft | 451 kts | 171° |
| 2026-04-23 04:12 | -14.68683 | 132.62747 | 36955 ft | 452 kts | 171° |
| 2026-04-23 04:12 | -14.74855 | 132.64006 | 36953 ft | 452 kts | 171° |
| 2026-04-23 04:13 | -14.80990 | 132.65266 | 36953 ft | 453 kts | 170° |
| 2026-04-23 04:13 | -14.87176 | 132.66530 | 36958 ft | 453 kts | 171° |
| 2026-04-23 04:14 | -14.93375 | 132.67700 | 36959 ft | 451 kts | 177° |
| 2026-04-23 04:14 | -14.99635 | 132.67977 | 36958 ft | 450 kts | 180° |
| 2026-04-23 04:15 | -15.05859 | 132.68213 | 36961 ft | 451 kts | 180° |
| 2026-04-23 04:16 | -15.15262 | 132.68575 | 36965 ft | 451 kts | 180° |
| 2026-04-23 04:16 | -15.21537 | 132.68819 | 36965 ft | 451 kts | 180° |
| 2026-04-23 04:17 | -15.27815 | 132.69063 | 36969 ft | 451 kts | 180° |
| 2026-04-23 04:17 | -15.34049 | 132.69301 | 36970 ft | 452 kts | 180° |
| 2026-04-23 04:18 | -15.40330 | 132.69545 | 36974 ft | 452 kts | 180° |
| 2026-04-23 04:18 | -15.46610 | 132.69790 | 36980 ft | 451 kts | 180° |
| 2026-04-23 04:19 | -15.52890 | 132.70025 | 36977 ft | 451 kts | 180° |
| 2026-04-23 04:19 | -15.59124 | 132.70265 | 36977 ft | 452 kts | 180° |
| 2026-04-23 04:20 | -15.65403 | 132.70513 | 36987 ft | 451 kts | 180° |
| 2026-04-23 04:20 | -15.71678 | 132.70755 | 36988 ft | 451 kts | 181° |
| 2026-04-23 04:21 | -15.77950 | 132.70995 | 36988 ft | 451 kts | 181° |
| 2026-04-23 04:21 | -15.84175 | 132.71235 | 36986 ft | 451 kts | 180° |
| 2026-04-23 04:22 | -15.90442 | 132.71479 | 36998 ft | 450 kts | 181° |
| 2026-04-23 04:22 | -15.96699 | 132.71720 | 36999 ft | 449 kts | 181° |
| 2026-04-23 04:23 | -16.02946 | 132.71966 | 36997 ft | 449 kts | 181° |
| 2026-04-23 04:23 | -16.09147 | 132.72210 | 36995 ft | 449 kts | 181° |
| 2026-04-23 04:24 | -16.15384 | 132.72445 | 36995 ft | 449 kts | 181° |
| 2026-04-23 04:24 | -16.21624 | 132.72691 | 36993 ft | 449 kts | 181° |
| 2026-04-23 04:25 | -16.27864 | 132.72944 | 36995 ft | 449 kts | 181° |
| 2026-04-23 04:25 | -16.34060 | 132.73182 | 36994 ft | 449 kts | 181° |
| 2026-04-23 04:26 | -16.40300 | 132.73412 | 37008 ft | 448 kts | 181° |
| 2026-04-23 04:26 | -16.46533 | 132.73653 | 37004 ft | 448 kts | 181° |
| 2026-04-23 04:27 | -16.52757 | 132.73896 | 37007 ft | 447 kts | 181° |
| 2026-04-23 04:27 | -16.58931 | 132.74140 | 37007 ft | 447 kts | 181° |
| 2026-04-23 04:28 | -16.68255 | 132.74496 | 37011 ft | 447 kts | 181° |
| 2026-04-23 04:28 | -16.74465 | 132.74742 | 37009 ft | 446 kts | 181° |
| 2026-04-23 04:29 | -16.80672 | 132.74995 | 37013 ft | 446 kts | 181° |
| 2026-04-23 04:29 | -16.86837 | 132.75241 | 37013 ft | 446 kts | 181° |
| 2026-04-23 04:30 | -16.93041 | 132.75482 | 37020 ft | 446 kts | 182° |
| 2026-04-23 04:30 | -16.99239 | 132.75725 | 37015 ft | 445 kts | 181° |
| 2026-04-23 04:31 | -17.05378 | 132.76523 | 37012 ft | 449 kts | 175° |
| 2026-04-23 04:31 | -17.11547 | 132.77506 | 37007 ft | 449 kts | 175° |
| 2026-04-23 04:32 | -17.17717 | 132.78490 | 37013 ft | 448 kts | 176° |
| 2026-04-23 04:32 | -17.23883 | 132.79464 | 37018 ft | 448 kts | 176° |
| 2026-04-23 04:33 | -17.30041 | 132.80439 | 37016 ft | 448 kts | 176° |
| 2026-04-23 04:33 | -17.36162 | 132.81413 | 37018 ft | 447 kts | 176° |
| 2026-04-23 04:34 | -17.42313 | 132.82385 | 37021 ft | 447 kts | 176° |
| 2026-04-23 04:34 | -17.48465 | 132.83364 | 37019 ft | 447 kts | 176° |
| 2026-04-23 04:35 | -17.54607 | 132.84341 | 37018 ft | 447 kts | 176° |
| 2026-04-23 04:35 | -17.60712 | 132.85315 | 37014 ft | 447 kts | 176° |
| 2026-04-23 04:36 | -17.66863 | 132.86300 | 37025 ft | 446 kts | 176° |
| 2026-04-23 04:36 | -17.73006 | 132.87272 | 37020 ft | 446 kts | 176° |
| 2026-04-23 04:37 | -17.79147 | 132.88252 | 37021 ft | 446 kts | 176° |
| 2026-04-23 04:37 | -17.85242 | 132.89225 | 37018 ft | 446 kts | 176° |
| 2026-04-23 04:38 | -17.91383 | 132.90197 | 37028 ft | 446 kts | 176° |
| 2026-04-23 04:38 | -17.97522 | 132.91174 | 37025 ft | 446 kts | 176° |
| 2026-04-23 04:39 | -18.03655 | 132.92157 | 37024 ft | 446 kts | 176° |
| 2026-04-23 04:39 | -18.09750 | 132.93129 | 37024 ft | 446 kts | 176° |
| 2026-04-23 04:40 | -18.15885 | 132.94116 | 37029 ft | 446 kts | 176° |
| 2026-04-23 04:40 | -18.22015 | 132.95100 | 37025 ft | 446 kts | 176° |
| 2026-04-23 04:41 | -18.28139 | 132.96074 | 37023 ft | 445 kts | 176° |
| 2026-04-23 04:41 | -18.34227 | 132.97050 | 37022 ft | 445 kts | 176° |
| 2026-04-23 04:42 | -18.40353 | 132.98037 | 37027 ft | 445 kts | 177° |
| 2026-04-23 04:42 | -18.46477 | 132.99025 | 37026 ft | 445 kts | 177° |
| 2026-04-23 04:43 | -18.52599 | 133.00005 | 37027 ft | 445 kts | 177° |
| 2026-04-23 04:43 | -18.58677 | 133.00984 | 37024 ft | 445 kts | 177° |
| 2026-04-23 04:44 | -18.64798 | 133.01981 | 37022 ft | 445 kts | 177° |
| 2026-04-23 04:44 | -18.70917 | 133.02961 | 37014 ft | 444 kts | 177° |
| 2026-04-23 04:45 | -18.77017 | 133.03941 | 37025 ft | 444 kts | 177° |
| 2026-04-23 04:45 | -18.83116 | 133.04925 | 37057 ft | 443 kts | 177° |
| 2026-04-23 04:46 | -18.89174 | 133.05910 | 37043 ft | 443 kts | 177° |
| 2026-04-23 04:46 | -18.95273 | 133.06899 | 37034 ft | 443 kts | 177° |
| 2026-04-23 04:47 | -19.01370 | 133.07894 | 37033 ft | 443 kts | 177° |
| 2026-04-23 04:47 | -19.07465 | 133.08879 | 37033 ft | 443 kts | 177° |
| 2026-04-23 04:48 | -19.13517 | 133.09853 | 37035 ft | 443 kts | 177° |
| 2026-04-23 04:48 | -19.19603 | 133.10841 | 37036 ft | 443 kts | 177° |
| 2026-04-23 04:49 | -19.25703 | 133.11835 | 37025 ft | 443 kts | 177° |
| 2026-04-23 04:49 | -19.31793 | 133.12817 | 37037 ft | 443 kts | 178° |
| 2026-04-23 04:50 | -19.37849 | 133.13798 | 37035 ft | 443 kts | 178° |
| 2026-04-23 04:50 | -19.43945 | 133.14791 | 37031 ft | 443 kts | 177° |
| 2026-04-23 04:51 | -19.50042 | 133.15789 | 37031 ft | 443 kts | 177° |
| 2026-04-23 04:51 | -19.56139 | 133.16781 | 37042 ft | 443 kts | 178° |
| 2026-04-23 04:52 | -19.62237 | 133.17772 | 37030 ft | 443 kts | 178° |
| 2026-04-23 04:52 | -19.68286 | 133.18755 | 37026 ft | 443 kts | 178° |
| 2026-04-23 04:53 | -19.74370 | 133.19743 | 37026 ft | 442 kts | 178° |
| 2026-04-23 04:53 | -19.80456 | 133.20736 | 37039 ft | 442 kts | 178° |
| 2026-04-23 04:54 | -19.86499 | 133.21733 | 37034 ft | 442 kts | 178° |
| 2026-04-23 04:54 | -19.92579 | 133.22732 | 37033 ft | 442 kts | 178° |
| 2026-04-23 04:55 | -19.98660 | 133.23722 | 37040 ft | 442 kts | 178° |
| 2026-04-23 04:55 | -20.04734 | 133.24713 | 37050 ft | 441 kts | 178° |
| 2026-04-23 04:56 | -20.10799 | 133.25705 | 37050 ft | 441 kts | 178° |
| 2026-04-23 04:56 | -20.16817 | 133.26695 | 37043 ft | 440 kts | 178° |
| 2026-04-23 04:57 | -20.22868 | 133.27689 | 37043 ft | 440 kts | 178° |
| 2026-04-23 04:57 | -20.28921 | 133.28686 | 37046 ft | 440 kts | 178° |
| 2026-04-23 04:58 | -20.34972 | 133.29685 | 37046 ft | 440 kts | 178° |
| 2026-04-23 04:58 | -20.40981 | 133.30675 | 37042 ft | 440 kts | 178° |
| 2026-04-23 04:59 | -20.47026 | 133.31663 | 37038 ft | 440 kts | 178° |
| 2026-04-23 04:59 | -20.53073 | 133.32657 | 37047 ft | 439 kts | 179° |
| 2026-04-23 05:00 | -20.59114 | 133.33657 | 37043 ft | 439 kts | 179° |
| 2026-04-23 05:00 | -20.65112 | 133.34647 | 37042 ft | 439 kts | 179° |
| 2026-04-23 05:01 | -20.71144 | 133.35640 | 37055 ft | 439 kts | 179° |
| 2026-04-23 05:01 | -20.77178 | 133.36639 | 37049 ft | 439 kts | 179° |
| 2026-04-23 05:02 | -20.82189 | 133.37472 | 37051 ft | 439 kts | 179° |
| 2026-04-23 05:02 | -20.89200 | 133.38631 | 37047 ft | 438 kts | 179° |
| 2026-04-23 05:03 | -20.95228 | 133.39622 | 37047 ft | 438 kts | 179° |
| 2026-04-23 05:03 | -21.00242 | 133.40453 | 37050 ft | 438 kts | 179° |
| 2026-04-23 05:04 | -21.06270 | 133.41450 | 37051 ft | 439 kts | 179° |
| 2026-04-23 05:04 | -21.12302 | 133.42455 | 37049 ft | 439 kts | 179° |
| 2026-04-23 05:05 | -21.19313 | 133.43626 | 37060 ft | 439 kts | 179° |
| 2026-04-23 05:05 | -21.24324 | 133.44462 | 37061 ft | 438 kts | 179° |
| 2026-04-23 05:06 | -21.30352 | 133.45465 | 37065 ft | 438 kts | 179° |
| 2026-04-23 05:06 | -21.36377 | 133.46470 | 37063 ft | 438 kts | 179° |
| 2026-04-23 05:07 | -21.42403 | 133.47481 | 37074 ft | 438 kts | 179° |
| 2026-04-23 05:07 | -21.48428 | 133.48492 | 37073 ft | 438 kts | 179° |
| 2026-04-23 05:08 | -21.54414 | 133.49495 | 37073 ft | 438 kts | 179° |
| 2026-04-23 05:08 | -21.60437 | 133.50499 | 37070 ft | 438 kts | 179° |
| 2026-04-23 05:09 | -21.66458 | 133.51503 | 37083 ft | 438 kts | 179° |
| 2026-04-23 05:09 | -21.72480 | 133.52517 | 37078 ft | 438 kts | 179° |
| 2026-04-23 05:10 | -21.78451 | 133.53518 | 37077 ft | 437 kts | 179° |
| 2026-04-23 05:10 | -21.84465 | 133.54534 | 37083 ft | 437 kts | 179° |
| 2026-04-23 05:11 | -21.90475 | 133.55554 | 37091 ft | 437 kts | 179° |
| 2026-04-23 05:11 | -21.96484 | 133.56568 | 37088 ft | 437 kts | 179° |
| 2026-04-23 05:12 | -22.02450 | 133.57575 | 37085 ft | 437 kts | 179° |
| 2026-04-23 05:12 | -22.08451 | 133.58583 | 37104 ft | 436 kts | 180° |
| 2026-04-23 05:13 | -22.14442 | 133.59593 | 37096 ft | 436 kts | 180° |
| 2026-04-23 05:14 | -22.23415 | 133.61112 | 37095 ft | 435 kts | 180° |
| 2026-04-23 05:14 | -22.29347 | 133.62132 | 37092 ft | 434 kts | 180° |
| 2026-04-23 05:15 | -22.35313 | 133.63138 | 37104 ft | 434 kts | 180° |
| 2026-04-23 05:15 | -22.41270 | 133.64141 | 37101 ft | 433 kts | 180° |
| 2026-04-23 05:16 | -22.47213 | 133.65154 | 37104 ft | 432 kts | 180° |
| 2026-04-23 05:16 | -22.53108 | 133.66161 | 37110 ft | 432 kts | 180° |
| 2026-04-23 05:17 | -22.59035 | 133.67172 | 37102 ft | 431 kts | 180° |
| 2026-04-23 05:17 | -22.64958 | 133.68179 | 37101 ft | 431 kts | 180° |
| 2026-04-23 05:18 | -22.70877 | 133.69189 | 37101 ft | 431 kts | 180° |
| 2026-04-23 05:18 | -22.76797 | 133.70206 | 37114 ft | 431 kts | 180° |
| 2026-04-23 05:19 | -22.82676 | 133.71210 | 37111 ft | 430 kts | 180° |
| 2026-04-23 05:19 | -22.88592 | 133.72219 | 37116 ft | 430 kts | 180° |
| 2026-04-23 05:20 | -22.94502 | 133.73227 | 37110 ft | 430 kts | 180° |
| 2026-04-23 05:20 | -23.00413 | 133.74236 | 37115 ft | 430 kts | 180° |
| 2026-04-23 05:21 | -23.06280 | 133.75240 | 37122 ft | 430 kts | 180° |
| 2026-04-23 05:21 | -23.12188 | 133.76252 | 37118 ft | 430 kts | 180° |
| 2026-04-23 05:22 | -23.18097 | 133.77266 | 37123 ft | 430 kts | 180° |
| 2026-04-23 05:22 | -23.24010 | 133.78282 | 37123 ft | 430 kts | 180° |
| 2026-04-23 05:23 | -23.29881 | 133.79294 | 37125 ft | 430 kts | 180° |
| 2026-04-23 05:23 | -23.35792 | 133.80313 | 37118 ft | 430 kts | 180° |
| 2026-04-23 05:24 | -23.41703 | 133.81331 | 37139 ft | 430 kts | 180° |
| 2026-04-23 05:24 | -23.47615 | 133.82346 | 37137 ft | 430 kts | 180° |
| 2026-04-23 05:25 | -23.53485 | 133.83351 | 37149 ft | 430 kts | 180° |
| 2026-04-23 05:25 | -23.59392 | 133.84372 | 37163 ft | 429 kts | 180° |
| 2026-04-23 05:26 | -23.65291 | 133.85396 | 37187 ft | 429 kts | 180° |
| 2026-04-23 05:26 | -23.71183 | 133.86422 | 37190 ft | 428 kts | 180° |
| 2026-04-23 05:27 | -23.77031 | 133.87430 | 37187 ft | 428 kts | 180° |
| 2026-04-23 05:27 | -23.82863 | 133.89230 | 37183 ft | 442 kts | 169° |
| 2026-04-23 05:28 | -23.88642 | 133.91564 | 37193 ft | 442 kts | 169° |
| 2026-04-23 05:28 | -23.94413 | 133.93894 | 37131 ft | 442 kts | 169° |
| 2026-04-23 05:29 | -24.00185 | 133.96216 | 37130 ft | 442 kts | 170° |
| 2026-04-23 05:29 | -24.05917 | 133.98514 | 37139 ft | 442 kts | 170° |
| 2026-04-23 05:30 | -24.11694 | 134.00835 | 37131 ft | 442 kts | 170° |
| 2026-04-23 05:30 | -24.17466 | 134.03167 | 37136 ft | 442 kts | 170° |
| 2026-04-23 05:31 | -24.23229 | 134.05494 | 37135 ft | 441 kts | 170° |
| 2026-04-23 05:31 | -24.28953 | 134.07806 | 37149 ft | 441 kts | 170° |
| 2026-04-23 05:32 | -24.34710 | 134.10141 | 37142 ft | 441 kts | 170° |
| 2026-04-23 05:32 | -24.40466 | 134.12471 | 37140 ft | 441 kts | 170° |
| 2026-04-23 05:33 | -24.46220 | 134.14799 | 37140 ft | 441 kts | 170° |
| 2026-04-23 05:33 | -24.51934 | 134.17115 | 37142 ft | 441 kts | 170° |
| 2026-04-23 05:34 | -24.57692 | 134.19452 | 37135 ft | 441 kts | 170° |
| 2026-04-23 05:34 | -24.63452 | 134.21792 | 37134 ft | 441 kts | 170° |
| 2026-04-23 05:35 | -24.69213 | 134.24136 | 37145 ft | 441 kts | 170° |
| 2026-04-23 05:35 | -24.74925 | 134.26460 | 37144 ft | 440 kts | 170° |
| 2026-04-23 05:36 | -24.80674 | 134.28795 | 37140 ft | 440 kts | 170° |
| 2026-04-23 05:36 | -24.86419 | 134.31141 | 37154 ft | 440 kts | 170° |
| 2026-04-23 05:37 | -24.92165 | 134.33488 | 37144 ft | 440 kts | 170° |
| 2026-04-23 05:37 | -24.97874 | 134.35821 | 37141 ft | 441 kts | 170° |
| 2026-04-23 05:38 | -25.03625 | 134.38180 | 37158 ft | 441 kts | 170° |
| 2026-04-23 05:38 | -25.09374 | 134.40542 | 37150 ft | 441 kts | 171° |
| 2026-04-23 05:39 | -25.15124 | 134.42892 | 37152 ft | 440 kts | 170° |
| 2026-04-23 05:39 | -25.20823 | 134.45232 | 37154 ft | 440 kts | 170° |
| 2026-04-23 05:40 | -25.26554 | 134.47596 | 37146 ft | 439 kts | 170° |
| 2026-04-23 05:40 | -25.32281 | 134.49960 | 37144 ft | 439 kts | 170° |
| 2026-04-23 05:41 | -25.38004 | 134.52315 | 37138 ft | 439 kts | 170° |
| 2026-04-23 05:41 | -25.43694 | 134.54662 | 37156 ft | 439 kts | 171° |
| 2026-04-23 05:42 | -25.49420 | 134.57022 | 37146 ft | 439 kts | 171° |
| 2026-04-23 05:42 | -25.55145 | 134.59395 | 37143 ft | 439 kts | 170° |
| 2026-04-23 05:43 | -25.60867 | 134.61772 | 37159 ft | 439 kts | 171° |
| 2026-04-23 05:43 | -25.66554 | 134.64132 | 37159 ft | 439 kts | 171° |
| 2026-04-23 05:44 | -25.72274 | 134.66501 | 37153 ft | 439 kts | 171° |
| 2026-04-23 05:44 | -25.77992 | 134.68869 | 37151 ft | 439 kts | 171° |
| 2026-04-23 05:45 | -25.83701 | 134.71243 | 37164 ft | 438 kts | 171° |
| 2026-04-23 05:45 | -25.89368 | 134.73609 | 37157 ft | 438 kts | 171° |
| 2026-04-23 05:46 | -25.95069 | 134.75989 | 37155 ft | 438 kts | 171° |
| 2026-04-23 05:46 | -26.00773 | 134.78367 | 37165 ft | 438 kts | 171° |
| 2026-04-23 05:47 | -26.06477 | 134.80743 | 37163 ft | 438 kts | 171° |
| 2026-04-23 05:47 | -26.12142 | 134.83113 | 37160 ft | 438 kts | 171° |
| 2026-04-23 05:48 | -26.17848 | 134.85502 | 37172 ft | 438 kts | 171° |
| 2026-04-23 05:48 | -26.23556 | 134.87896 | 37165 ft | 438 kts | 171° |
| 2026-04-23 05:49 | -26.29254 | 134.90286 | 37163 ft | 438 kts | 171° |
| 2026-04-23 05:49 | -26.34920 | 134.92665 | 37159 ft | 438 kts | 171° |
| 2026-04-23 05:50 | -26.40621 | 134.95069 | 37169 ft | 438 kts | 170° |
| 2026-04-23 05:50 | -26.46322 | 134.97468 | 37163 ft | 438 kts | 171° |
| 2026-04-23 05:51 | -26.52023 | 134.99863 | 37170 ft | 438 kts | 170° |
| 2026-04-23 05:51 | -26.57717 | 135.02266 | 37192 ft | 437 kts | 170° |
| 2026-04-23 05:52 | -26.63358 | 135.04644 | 37182 ft | 436 kts | 170° |
| 2026-04-23 05:52 | -26.69042 | 135.07047 | 37175 ft | 436 kts | 170° |
| 2026-04-23 05:53 | -26.74717 | 135.09453 | 37165 ft | 436 kts | 170° |
| 2026-04-23 05:53 | -26.80387 | 135.11846 | 37167 ft | 436 kts | 170° |
| 2026-04-23 05:54 | -26.86028 | 135.14228 | 37171 ft | 436 kts | 170° |
| 2026-04-23 05:54 | -26.91707 | 135.16642 | 37162 ft | 437 kts | 170° |
| 2026-04-23 05:55 | -26.97387 | 135.19069 | 37162 ft | 437 kts | 170° |
| 2026-04-23 05:55 | -27.03064 | 135.21517 | 37160 ft | 437 kts | 170° |
| 2026-04-23 05:56 | -27.08705 | 135.23947 | 37188 ft | 437 kts | 170° |
| 2026-04-23 05:56 | -27.14387 | 135.26391 | 37185 ft | 437 kts | 170° |
| 2026-04-23 05:57 | -27.20063 | 135.28836 | 37177 ft | 437 kts | 170° |
| 2026-04-23 05:57 | -27.25747 | 135.31279 | 37176 ft | 437 kts | 170° |
| 2026-04-23 05:58 | -27.31392 | 135.33711 | 37171 ft | 437 kts | 170° |
| 2026-04-23 05:58 | -27.37074 | 135.36172 | 37174 ft | 438 kts | 169° |
| 2026-04-23 05:59 | -27.42756 | 135.38635 | 37187 ft | 437 kts | 170° |
| 2026-04-23 05:59 | -27.48436 | 135.41091 | 37182 ft | 437 kts | 169° |
| 2026-04-23 06:00 | -27.54109 | 135.43557 | 37180 ft | 437 kts | 169° |
| 2026-04-23 06:00 | -27.59762 | 135.45861 | 37198 ft | 433 kts | 172° |
| 2026-04-23 06:01 | -27.65479 | 135.47905 | 37190 ft | 431 kts | 173° |
| 2026-04-23 06:01 | -27.71204 | 135.49925 | 37181 ft | 431 kts | 173° |
| 2026-04-23 06:02 | -27.76923 | 135.51994 | 37181 ft | 432 kts | 173° |
| 2026-04-23 06:02 | -27.82599 | 135.54084 | 37181 ft | 432 kts | 172° |
| 2026-04-23 06:03 | -27.88313 | 135.56190 | 37185 ft | 432 kts | 172° |
| 2026-04-23 06:03 | -27.94028 | 135.58295 | 37199 ft | 432 kts | 172° |
| 2026-04-23 06:04 | -27.99735 | 135.60412 | 37200 ft | 431 kts | 172° |
| 2026-04-23 06:04 | -28.05389 | 135.62515 | 37198 ft | 431 kts | 172° |
| 2026-04-23 06:05 | -28.11081 | 135.64627 | 37207 ft | 430 kts | 172° |
| 2026-04-23 06:05 | -28.16773 | 135.66730 | 37200 ft | 430 kts | 172° |
| 2026-04-23 06:06 | -28.22464 | 135.68837 | 37192 ft | 430 kts | 172° |
| 2026-04-23 06:06 | -28.28115 | 135.70934 | 37189 ft | 430 kts | 172° |
| 2026-04-23 06:07 | -28.33804 | 135.73041 | 37193 ft | 430 kts | 172° |
| 2026-04-23 06:07 | -28.39492 | 135.75155 | 37201 ft | 430 kts | 172° |
| 2026-04-23 06:08 | -28.45172 | 135.77275 | 37198 ft | 430 kts | 172° |
| 2026-04-23 06:08 | -28.50855 | 135.79391 | 37213 ft | 429 kts | 172° |
| 2026-04-23 06:09 | -28.56490 | 135.81489 | 37207 ft | 429 kts | 172° |
| 2026-04-23 06:09 | -28.62158 | 135.83610 | 37220 ft | 429 kts | 172° |
| 2026-04-23 06:10 | -28.67823 | 135.85732 | 37211 ft | 428 kts | 172° |
| 2026-04-23 06:10 | -28.73451 | 135.87832 | 37206 ft | 428 kts | 172° |
| 2026-04-23 06:11 | -28.79117 | 135.89954 | 37199 ft | 429 kts | 172° |
| 2026-04-23 06:11 | -28.84783 | 135.92080 | 37210 ft | 429 kts | 171° |
| 2026-04-23 06:12 | -28.90451 | 135.94219 | 37202 ft | 429 kts | 171° |
| 2026-04-23 06:12 | -28.98918 | 135.97419 | 37208 ft | 430 kts | 171° |
| 2026-04-23 06:13 | -29.04601 | 135.99546 | 37199 ft | 430 kts | 171° |
| 2026-04-23 06:13 | -29.10286 | 136.01681 | 37203 ft | 430 kts | 171° |
| 2026-04-23 06:14 | -29.15977 | 136.03835 | 37194 ft | 431 kts | 171° |
| 2026-04-23 06:14 | -29.21636 | 136.05983 | 37192 ft | 432 kts | 170° |
| 2026-04-23 06:15 | -29.27338 | 136.08147 | 37193 ft | 432 kts | 171° |
| 2026-04-23 06:15 | -29.33043 | 136.10314 | 37196 ft | 432 kts | 170° |
| 2026-04-23 06:16 | -29.38747 | 136.12482 | 37195 ft | 433 kts | 170° |
| 2026-04-23 06:16 | -29.44479 | 136.14653 | 37188 ft | 434 kts | 170° |
| 2026-04-23 06:17 | -29.50170 | 136.16809 | 37187 ft | 434 kts | 170° |
| 2026-04-23 06:17 | -29.55916 | 136.18997 | 37190 ft | 435 kts | 169° |
| 2026-04-23 06:18 | -29.61674 | 136.21190 | 37197 ft | 437 kts | 169° |
| 2026-04-23 06:18 | -29.67409 | 136.23382 | 37187 ft | 438 kts | 168° |
| 2026-04-23 06:19 | -29.73195 | 136.25601 | 37186 ft | 439 kts | 168° |
| 2026-04-23 06:19 | -29.78982 | 136.27833 | 37187 ft | 439 kts | 168° |
| 2026-04-23 06:20 | -29.84780 | 136.30079 | 37189 ft | 440 kts | 168° |
| 2026-04-23 06:20 | -29.90544 | 136.32303 | 37191 ft | 440 kts | 169° |
| 2026-04-23 06:21 | -29.96349 | 136.34540 | 37194 ft | 440 kts | 168° |
| 2026-04-23 06:21 | -30.02152 | 136.36792 | 37199 ft | 440 kts | 168° |
| 2026-04-23 06:22 | -30.07959 | 136.39051 | 37208 ft | 441 kts | 168° |
| 2026-04-23 06:22 | -30.13740 | 136.41296 | 37198 ft | 442 kts | 168° |
| 2026-04-23 06:23 | -30.19571 | 136.43562 | 37190 ft | 442 kts | 168° |
| 2026-04-23 06:23 | -30.25407 | 136.45838 | 37196 ft | 443 kts | 168° |
| 2026-04-23 06:24 | -30.31244 | 136.48111 | 37195 ft | 443 kts | 168° |
| 2026-04-23 06:24 | -30.37093 | 136.50386 | 37200 ft | 444 kts | 167° |
| 2026-04-23 06:25 | -30.42913 | 136.52653 | 37199 ft | 445 kts | 167° |
| 2026-04-23 06:25 | -30.48781 | 136.54949 | 37196 ft | 445 kts | 167° |
| 2026-04-23 06:26 | -30.54656 | 136.57248 | 37203 ft | 446 kts | 167° |
| 2026-04-23 06:26 | -30.60536 | 136.59554 | 37217 ft | 446 kts | 167° |
| 2026-04-23 06:27 | -30.66386 | 136.61859 | 37196 ft | 447 kts | 167° |
| 2026-04-23 06:27 | -30.72278 | 136.64173 | 37199 ft | 448 kts | 167° |
| 2026-04-23 06:28 | -30.78182 | 136.66495 | 37204 ft | 448 kts | 167° |
| 2026-04-23 06:28 | -30.84089 | 136.68825 | 37213 ft | 448 kts | 166° |
| 2026-04-23 06:29 | -30.89960 | 136.71153 | 37211 ft | 449 kts | 166° |
| 2026-04-23 06:29 | -30.95878 | 136.73489 | 37215 ft | 449 kts | 166° |
| 2026-04-23 06:30 | -31.01799 | 136.75825 | 37218 ft | 449 kts | 166° |
| 2026-04-23 06:30 | -31.07721 | 136.78169 | 37241 ft | 450 kts | 166° |
| 2026-04-23 06:31 | -31.13646 | 136.80522 | 37230 ft | 450 kts | 166° |
| 2026-04-23 06:31 | -31.19543 | 136.82788 | 37227 ft | 449 kts | 167° |
| 2026-04-23 06:32 | -31.25514 | 136.84942 | 37225 ft | 449 kts | 167° |
| 2026-04-23 06:32 | -31.31489 | 136.87088 | 37230 ft | 449 kts | 167° |
| 2026-04-23 06:33 | -31.37461 | 136.89265 | 37224 ft | 450 kts | 167° |
| 2026-04-23 06:33 | -31.43393 | 136.91464 | 37223 ft | 450 kts | 167° |
| 2026-04-23 06:34 | -31.49368 | 136.93672 | 37222 ft | 450 kts | 167° |
| 2026-04-23 06:34 | -31.55347 | 136.95878 | 37229 ft | 451 kts | 167° |
| 2026-04-23 06:35 | -31.61330 | 136.98088 | 37232 ft | 451 kts | 166° |
| 2026-04-23 06:35 | -31.67309 | 137.00293 | 37232 ft | 451 kts | 166° |
| 2026-04-23 06:36 | -31.73249 | 137.02498 | 37232 ft | 451 kts | 166° |
| 2026-04-23 06:36 | -31.79229 | 137.04716 | 37241 ft | 451 kts | 166° |
| 2026-04-23 06:37 | -31.85208 | 137.06937 | 37235 ft | 451 kts | 166° |
| 2026-04-23 06:37 | -31.91186 | 137.09166 | 37234 ft | 451 kts | 166° |
| 2026-04-23 06:38 | -31.97125 | 137.11378 | 37232 ft | 451 kts | 166° |
| 2026-04-23 06:38 | -32.03108 | 137.13597 | 37232 ft | 451 kts | 166° |
| 2026-04-23 06:39 | -32.09089 | 137.15834 | 37229 ft | 451 kts | 166° |
| 2026-04-23 06:39 | -32.15071 | 137.18081 | 37228 ft | 451 kts | 166° |
| 2026-04-23 06:40 | -32.21009 | 137.20305 | 37229 ft | 451 kts | 166° |
| 2026-04-23 06:40 | -32.26995 | 137.22552 | 37229 ft | 451 kts | 166° |
| 2026-04-23 06:41 | -32.32984 | 137.24796 | 37227 ft | 451 kts | 166° |
| 2026-04-23 06:41 | -32.38971 | 137.27051 | 37233 ft | 452 kts | 166° |
| 2026-04-23 06:42 | -32.44920 | 137.29291 | 37229 ft | 452 kts | 166° |
| 2026-04-23 06:42 | -32.50907 | 137.31550 | 37239 ft | 452 kts | 166° |
| 2026-04-23 06:43 | -32.56897 | 137.33814 | 37242 ft | 452 kts | 166° |
| 2026-04-23 06:43 | -32.62885 | 137.36077 | 37234 ft | 452 kts | 166° |
| 2026-04-23 06:44 | -32.68885 | 137.38345 | 37234 ft | 452 kts | 166° |
| 2026-04-23 06:44 | -32.74840 | 137.40602 | 37247 ft | 452 kts | 166° |
| 2026-04-23 06:45 | -32.80828 | 137.42880 | 37245 ft | 452 kts | 166° |
| 2026-04-23 06:45 | -32.86816 | 137.45155 | 37242 ft | 452 kts | 166° |
| 2026-04-23 06:46 | -32.92765 | 137.47417 | 37238 ft | 452 kts | 166° |
| 2026-04-23 06:46 | -32.98752 | 137.49701 | 37249 ft | 452 kts | 166° |
| 2026-04-23 06:47 | -33.04732 | 137.51987 | 37244 ft | 452 kts | 165° |
| 2026-04-23 06:47 | -33.10719 | 137.54265 | 37241 ft | 451 kts | 166° |
| 2026-04-23 06:48 | -33.16675 | 137.56481 | 37242 ft | 451 kts | 166° |
| 2026-04-23 06:48 | -33.22675 | 137.58708 | 37247 ft | 451 kts | 166° |
| 2026-04-23 06:49 | -33.28671 | 137.60954 | 37251 ft | 451 kts | 166° |